Garden City Beach, South Carolina
Current Conditions -  °F | °C
As of 11:45 AM on Tuesday 27 Jan 2015 (Local Time) from KMYR Reporting Station
Scattered Clouds Scattered Clouds  
Wind Chill: 38°   Ceiling: Unl
Heat Index: 45°   Visibility: 10mi
Dew Point: 25°   Wind: 13mph
Humidity: 46%   Direction: 320°NW
Pressure: 29.85"   Gusts: NA
Location:  33.5501°N, 79.0592°W
Report Text: KMYR 271645Z 32011KT 10SM FEW050 SCT110 07/M04 A2985
Loading
Personal Weather Stations






























Interactive Weather Map New forecast layout! Learn more

10-Day Weather Forecast

Advertisements
Track Severe Weather on mobile